sensor_id;sensor_type;location;lat;lon;timestamp;temperature;humidity
28845;DHT22;15976;47.938;7.758;2023-01-20T00:01:33;4.40;70.50
28845;DHT22;15976;47.938;7.758;2023-01-20T00:04:02;4.40;70.50
28845;DHT22;15976;47.938;7.758;2023-01-20T00:06:29;4.40;70.50
28845;DHT22;15976;47.938;7.758;2023-01-20T00:08:59;4.40;70.60
28845;DHT22;15976;47.938;7.758;2023-01-20T00:11:29;4.40;70.50
28845;DHT22;15976;47.938;7.758;2023-01-20T00:14:00;4.40;70.50
28845;DHT22;15976;47.938;7.758;2023-01-20T00:16:28;4.40;70.60
28845;DHT22;15976;47.938;7.758;2023-01-20T00:18:57;4.40;70.70
28845;DHT22;15976;47.938;7.758;2023-01-20T00:21:24;4.40;70.60
28845;DHT22;15976;47.938;7.758;2023-01-20T00:23:51;4.30;70.90
28845;DHT22;15976;47.938;7.758;2023-01-20T00:26:20;4.30;70.70
28845;DHT22;15976;47.938;7.758;2023-01-20T00:28:48;4.30;70.80
28845;DHT22;15976;47.938;7.758;2023-01-20T00:33:43;4.40;70.90
28845;DHT22;15976;47.938;7.758;2023-01-20T00:36:11;4.40;70.80
28845;DHT22;15976;47.938;7.758;2023-01-20T00:38:39;4.40;70.80
28845;DHT22;15976;47.938;7.758;2023-01-20T00:41:06;4.40;70.80
28845;DHT22;15976;47.938;7.758;2023-01-20T00:43:34;4.40;70.70
28845;DHT22;15976;47.938;7.758;2023-01-20T00:46:02;4.40;70.70
28845;DHT22;15976;47.938;7.758;2023-01-20T00:48:29;4.40;70.60
28845;DHT22;15976;47.938;7.758;2023-01-20T00:50:56;4.40;70.50
28845;DHT22;15976;47.938;7.758;2023-01-20T00:53:23;4.50;70.60
28845;DHT22;15976;47.938;7.758;2023-01-20T00:55:51;4.40;70.50
28845;DHT22;15976;47.938;7.758;2023-01-20T00:58:18;4.40;70.40
28845;DHT22;15976;47.938;7.758;2023-01-20T01:00:50;4.40;70.40
28845;DHT22;15976;47.938;7.758;2023-01-20T01:03:17;4.40;70.20
28845;DHT22;15976;47.938;7.758;2023-01-20T01:05:44;4.50;70.40
28845;DHT22;15976;47.938;7.758;2023-01-20T01:08:12;4.40;70.30
28845;DHT22;15976;47.938;7.758;2023-01-20T01:10:39;4.50;70.50
28845;DHT22;15976;47.938;7.758;2023-01-20T01:13:07;4.40;70.40
28845;DHT22;15976;47.938;7.758;2023-01-20T01:15:35;4.40;70.30
28845;DHT22;15976;47.938;7.758;2023-01-20T01:18:02;4.50;70.40
28845;DHT22;15976;47.938;7.758;2023-01-20T01:20:29;4.40;70.20
28845;DHT22;15976;47.938;7.758;2023-01-20T01:22:56;4.40;70.30
28845;DHT22;15976;47.938;7.758;2023-01-20T01:25:24;4.40;70.30
28845;DHT22;15976;47.938;7.758;2023-01-20T01:27:50;4.40;70.40
28845;DHT22;15976;47.938;7.758;2023-01-20T01:30:17;4.40;70.30
28845;DHT22;15976;47.938;7.758;2023-01-20T01:32:45;4.40;70.30
28845;DHT22;15976;47.938;7.758;2023-01-20T01:35:12;4.40;70.30
28845;DHT22;15976;47.938;7.758;2023-01-20T01:37:39;4.40;70.20
28845;DHT22;15976;47.938;7.758;2023-01-20T01:40:07;4.40;70.40
28845;DHT22;15976;47.938;7.758;2023-01-20T01:42:35;4.40;70.30
28845;DHT22;15976;47.938;7.758;2023-01-20T01:47:43;4.30;70.30
28845;DHT22;15976;47.938;7.758;2023-01-20T01:50:19;4.30;70.40
28845;DHT22;15976;47.938;7.758;2023-01-20T01:52:49;4.30;70.40
28845;DHT22;15976;47.938;7.758;2023-01-20T01:55:18;4.20;70.20
28845;DHT22;15976;47.938;7.758;2023-01-20T01:57:47;4.20;70.30
28845;DHT22;15976;47.938;7.758;2023-01-20T02:00:15;4.20;70.30
28845;DHT22;15976;47.938;7.758;2023-01-20T02:02:43;4.20;70.30
28845;DHT22;15976;47.938;7.758;2023-01-20T02:05:12;4.20;70.20
28845;DHT22;15976;47.938;7.758;2023-01-20T02:07:43;4.20;70.10
28845;DHT22;15976;47.938;7.758;2023-01-20T02:10:11;4.20;70.20
28845;DHT22;15976;47.938;7.758;2023-01-20T02:12:40;4.20;70.30
28845;DHT22;15976;47.938;7.758;2023-01-20T02:15:08;4.20;70.30
28845;DHT22;15976;47.938;7.758;2023-01-20T02:23:50;4.30;70.30
28845;DHT22;15976;47.938;7.758;2023-01-20T02:26:55;4.30;70.20
28845;DHT22;15976;47.938;7.758;2023-01-20T02:32:39;4.20;69.90
28845;DHT22;15976;47.938;7.758;2023-01-20T02:41:19;4.20;70.40
28845;DHT22;15976;47.938;7.758;2023-01-20T02:43:58;4.10;70.40
28845;DHT22;15976;47.938;7.758;2023-01-20T02:49:24;4.10;70.70
28845;DHT22;15976;47.938;7.758;2023-01-20T02:54:28;4.10;70.70
28845;DHT22;15976;47.938;7.758;2023-01-20T02:56:57;4.10;70.70
28845;DHT22;15976;47.938;7.758;2023-01-20T02:59:29;4.20;70.90
28845;DHT22;15976;47.938;7.758;2023-01-20T03:02:09;4.10;70.80
28845;DHT22;15976;47.938;7.758;2023-01-20T03:04:51;4.20;70.90
28845;DHT22;15976;47.938;7.758;2023-01-20T03:07:22;4.20;70.90
28845;DHT22;15976;47.938;7.758;2023-01-20T03:09:52;4.20;71.00
28845;DHT22;15976;47.938;7.758;2023-01-20T03:12:45;4.20;71.00
28845;DHT22;15976;47.938;7.758;2023-01-20T03:15:12;4.20;70.90
28845;DHT22;15976;47.938;7.758;2023-01-20T03:17:40;4.20;70.70
28845;DHT22;15976;47.938;7.758;2023-01-20T03:20:08;4.20;70.80
28845;DHT22;15976;47.938;7.758;2023-01-20T03:22:35;4.10;70.70
28845;DHT22;15976;47.938;7.758;2023-01-20T03:25:02;4.10;70.70
28845;DHT22;15976;47.938;7.758;2023-01-20T03:27:29;4.10;70.70
28845;DHT22;15976;47.938;7.758;2023-01-20T03:29:57;4.10;70.70
28845;DHT22;15976;47.938;7.758;2023-01-20T03:32:24;4.10;70.80
28845;DHT22;15976;47.938;7.758;2023-01-20T03:34:54;4.20;70.80
28845;DHT22;15976;47.938;7.758;2023-01-20T03:37:21;4.10;70.80
28845;DHT22;15976;47.938;7.758;2023-01-20T03:39:50;4.10;70.70
28845;DHT22;15976;47.938;7.758;2023-01-20T03:42:28;4.10;70.80
28845;DHT22;15976;47.938;7.758;2023-01-20T03:45:04;4.10;70.80
28845;DHT22;15976;47.938;7.758;2023-01-20T03:53:32;4.10;71.00
28845;DHT22;15976;47.938;7.758;2023-01-20T03:58:37;4.10;70.70
28845;DHT22;15976;47.938;7.758;2023-01-20T04:01:07;4.10;70.60
28845;DHT22;15976;47.938;7.758;2023-01-20T04:03:46;4.10;70.50
28845;DHT22;15976;47.938;7.758;2023-01-20T04:06:15;4.10;70.50
28845;DHT22;15976;47.938;7.758;2023-01-20T04:08:54;4.10;70.40
28845;DHT22;15976;47.938;7.758;2023-01-20T04:11:22;4.00;70.30
28845;DHT22;15976;47.938;7.758;2023-01-20T04:13:50;4.00;70.30
28845;DHT22;15976;47.938;7.758;2023-01-20T04:16:18;4.00;70.30
28845;DHT22;15976;47.938;7.758;2023-01-20T04:18:48;4.00;70.40
28845;DHT22;15976;47.938;7.758;2023-01-20T04:21:40;4.00;70.30
28845;DHT22;15976;47.938;7.758;2023-01-20T04:24:22;4.00;70.20
28845;DHT22;15976;47.938;7.758;2023-01-20T04:26:50;3.90;70.20
28845;DHT22;15976;47.938;7.758;2023-01-20T04:29:17;3.90;70.50
28845;DHT22;15976;47.938;7.758;2023-01-20T04:31:44;3.80;70.60
28845;DHT22;15976;47.938;7.758;2023-01-20T04:34:12;3.70;70.80
28845;DHT22;15976;47.938;7.758;2023-01-20T04:36:41;3.70;71.10
28845;DHT22;15976;47.938;7.758;2023-01-20T04:39:08;3.70;71.50
28845;DHT22;15976;47.938;7.758;2023-01-20T04:41:35;3.70;71.80
28845;DHT22;15976;47.938;7.758;2023-01-20T04:44:02;3.70;72.00
28845;DHT22;15976;47.938;7.758;2023-01-20T04:46:29;3.70;72.00
28845;DHT22;15976;47.938;7.758;2023-01-20T04:48:56;3.70;72.00
28845;DHT22;15976;47.938;7.758;2023-01-20T04:51:23;3.70;72.00
28845;DHT22;15976;47.938;7.758;2023-01-20T04:53:54;3.80;72.00
28845;DHT22;15976;47.938;7.758;2023-01-20T04:56:21;3.80;72.30
28845;DHT22;15976;47.938;7.758;2023-01-20T04:58:49;3.70;72.40
28845;DHT22;15976;47.938;7.758;2023-01-20T05:01:16;3.70;72.40
28845;DHT22;15976;47.938;7.758;2023-01-20T05:03:43;3.80;72.60
28845;DHT22;15976;47.938;7.758;2023-01-20T05:06:12;3.80;72.60
28845;DHT22;15976;47.938;7.758;2023-01-20T05:08:41;3.80;72.60
28845;DHT22;15976;47.938;7.758;2023-01-20T05:11:08;3.80;72.40
28845;DHT22;15976;47.938;7.758;2023-01-20T05:13:35;3.90;72.40
28845;DHT22;15976;47.938;7.758;2023-01-20T05:16:06;3.80;72.20
28845;DHT22;15976;47.938;7.758;2023-01-20T05:18:33;3.80;72.20
28845;DHT22;15976;47.938;7.758;2023-01-20T05:21:02;3.80;72.20
28845;DHT22;15976;47.938;7.758;2023-01-20T05:23:29;3.80;72.20
28845;DHT22;15976;47.938;7.758;2023-01-20T05:25:56;3.80;72.10
28845;DHT22;15976;47.938;7.758;2023-01-20T05:28:23;3.80;72.10
28845;DHT22;15976;47.938;7.758;2023-01-20T05:30:50;3.70;72.00
28845;DHT22;15976;47.938;7.758;2023-01-20T05:33:18;3.70;72.90
28845;DHT22;15976;47.938;7.758;2023-01-20T05:35:45;3.70;72.30
28845;DHT22;15976;47.938;7.758;2023-01-20T05:38:12;3.60;72.20
28845;DHT22;15976;47.938;7.758;2023-01-20T05:40:39;3.60;72.40
28845;DHT22;15976;47.938;7.758;2023-01-20T05:43:06;3.50;72.50
28845;DHT22;15976;47.938;7.758;2023-01-20T05:45:33;3.50;72.50
28845;DHT22;15976;47.938;7.758;2023-01-20T05:48:00;3.50;72.60
28845;DHT22;15976;47.938;7.758;2023-01-20T05:50:28;3.40;72.70
28845;DHT22;15976;47.938;7.758;2023-01-20T05:52:55;3.40;72.90
28845;DHT22;15976;47.938;7.758;2023-01-20T05:55:22;3.40;72.90
28845;DHT22;15976;47.938;7.758;2023-01-20T05:57:49;3.40;72.90
28845;DHT22;15976;47.938;7.758;2023-01-20T06:00:17;3.40;72.70
28845;DHT22;15976;47.938;7.758;2023-01-20T06:02:44;3.40;72.90
28845;DHT22;15976;47.938;7.758;2023-01-20T06:05:11;3.30;73.10
28845;DHT22;15976;47.938;7.758;2023-01-20T06:07:39;3.20;73.10
28845;DHT22;15976;47.938;7.758;2023-01-20T06:10:06;3.20;73.40
28845;DHT22;15976;47.938;7.758;2023-01-20T06:12:34;3.20;73.60
28845;DHT22;15976;47.938;7.758;2023-01-20T06:15:01;3.10;73.60
28845;DHT22;15976;47.938;7.758;2023-01-20T06:17:28;3.20;73.80
28845;DHT22;15976;47.938;7.758;2023-01-20T06:19:55;3.10;73.80
28845;DHT22;15976;47.938;7.758;2023-01-20T06:22:22;3.10;73.70
28845;DHT22;15976;47.938;7.758;2023-01-20T06:24:49;3.00;73.70
28845;DHT22;15976;47.938;7.758;2023-01-20T06:27:17;3.00;73.80
28845;DHT22;15976;47.938;7.758;2023-01-20T06:29:44;2.80;73.60
28845;DHT22;15976;47.938;7.758;2023-01-20T06:32:11;2.60;74.10
28845;DHT22;15976;47.938;7.758;2023-01-20T06:34:38;2.50;74.70
28845;DHT22;15976;47.938;7.758;2023-01-20T06:37:05;2.60;74.80
28845;DHT22;15976;47.938;7.758;2023-01-20T06:39:32;2.70;74.60
28845;DHT22;15976;47.938;7.758;2023-01-20T06:41:59;2.70;74.30
28845;DHT22;15976;47.938;7.758;2023-01-20T06:44:26;2.70;74.30
28845;DHT22;15976;47.938;7.758;2023-01-20T06:46:54;2.80;74.30
28845;DHT22;15976;47.938;7.758;2023-01-20T06:49:24;2.80;74.40
28845;DHT22;15976;47.938;7.758;2023-01-20T06:51:51;2.80;74.40
28845;DHT22;15976;47.938;7.758;2023-01-20T06:54:18;2.70;74.20
28845;DHT22;15976;47.938;7.758;2023-01-20T06:56:45;2.60;73.90
28845;DHT22;15976;47.938;7.758;2023-01-20T06:59:13;2.40;74.30
28845;DHT22;15976;47.938;7.758;2023-01-20T07:01:40;2.30;74.60
28845;DHT22;15976;47.938;7.758;2023-01-20T07:04:09;2.20;75.00
28845;DHT22;15976;47.938;7.758;2023-01-20T07:06:39;2.30;75.30
28845;DHT22;15976;47.938;7.758;2023-01-20T07:09:09;2.30;75.30
28845;DHT22;15976;47.938;7.758;2023-01-20T07:11:37;2.50;75.20
28845;DHT22;15976;47.938;7.758;2023-01-20T07:14:05;2.50;75.00
28845;DHT22;15976;47.938;7.758;2023-01-20T07:16:32;2.60;74.80
28845;DHT22;15976;47.938;7.758;2023-01-20T07:19:00;2.60;74.60
28845;DHT22;15976;47.938;7.758;2023-01-20T07:21:27;2.60;74.60
28845;DHT22;15976;47.938;7.758;2023-01-20T07:23:54;2.70;74.60
28845;DHT22;15976;47.938;7.758;2023-01-20T07:26:22;2.70;74.60
28845;DHT22;15976;47.938;7.758;2023-01-20T07:28:52;2.80;74.50
28845;DHT22;15976;47.938;7.758;2023-01-20T07:31:22;2.80;74.40
28845;DHT22;15976;47.938;7.758;2023-01-20T07:33:50;2.90;74.30
28845;DHT22;15976;47.938;7.758;2023-01-20T07:36:17;2.90;74.20
28845;DHT22;15976;47.938;7.758;2023-01-20T07:38:48;2.90;74.10
28845;DHT22;15976;47.938;7.758;2023-01-20T07:41:18;2.80;74.00
28845;DHT22;15976;47.938;7.758;2023-01-20T07:43:50;2.90;74.30
28845;DHT22;15976;47.938;7.758;2023-01-20T07:46:18;2.90;74.10
28845;DHT22;15976;47.938;7.758;2023-01-20T07:48:45;3.00;74.00
28845;DHT22;15976;47.938;7.758;2023-01-20T07:51:14;3.10;74.00
28845;DHT22;15976;47.938;7.758;2023-01-20T07:53:43;3.20;73.90
28845;DHT22;15976;47.938;7.758;2023-01-20T07:56:15;3.20;73.70
28845;DHT22;15976;47.938;7.758;2023-01-20T07:58:42;3.30;73.60
28845;DHT22;15976;47.938;7.758;2023-01-20T08:01:19;3.30;73.50
28845;DHT22;15976;47.938;7.758;2023-01-20T08:03:47;3.40;73.40
28845;DHT22;15976;47.938;7.758;2023-01-20T08:06:16;3.40;73.30
28845;DHT22;15976;47.938;7.758;2023-01-20T08:08:44;3.40;73.20
28845;DHT22;15976;47.938;7.758;2023-01-20T08:11:12;3.40;73.00
28845;DHT22;15976;47.938;7.758;2023-01-20T08:13:40;3.50;73.00
28845;DHT22;15976;47.938;7.758;2023-01-20T08:16:10;3.50;72.90
28845;DHT22;15976;47.938;7.758;2023-01-20T08:18:38;3.60;72.70
28845;DHT22;15976;47.938;7.758;2023-01-20T08:21:06;3.60;72.50
28845;DHT22;15976;47.938;7.758;2023-01-20T08:23:35;3.70;72.20
28845;DHT22;15976;47.938;7.758;2023-01-20T08:26:05;3.70;71.90
28845;DHT22;15976;47.938;7.758;2023-01-20T08:28:34;3.80;71.70
28845;DHT22;15976;47.938;7.758;2023-01-20T08:31:10;3.80;71.60
28845;DHT22;15976;47.938;7.758;2023-01-20T08:33:38;3.90;71.50
28845;DHT22;15976;47.938;7.758;2023-01-20T08:38:43;4.10;71.50
28845;DHT22;15976;47.938;7.758;2023-01-20T08:41:20;4.10;71.20
28845;DHT22;15976;47.938;7.758;2023-01-20T08:43:49;4.20;71.10
28845;DHT22;15976;47.938;7.758;2023-01-20T08:46:18;4.20;71.00
28845;DHT22;15976;47.938;7.758;2023-01-20T08:48:46;4.30;71.00
28845;DHT22;15976;47.938;7.758;2023-01-20T08:51:17;4.40;70.90
28845;DHT22;15976;47.938;7.758;2023-01-20T08:53:45;4.40;70.80
28845;DHT22;15976;47.938;7.758;2023-01-20T08:56:13;4.40;70.80
28845;DHT22;15976;47.938;7.758;2023-01-20T08:58:40;4.40;70.80
28845;DHT22;15976;47.938;7.758;2023-01-20T09:01:13;4.40;70.60
28845;DHT22;15976;47.938;7.758;2023-01-20T09:03:40;4.50;70.60
28845;DHT22;15976;47.938;7.758;2023-01-20T09:06:18;4.50;70.50
28845;DHT22;15976;47.938;7.758;2023-01-20T09:08:48;4.50;70.40
28845;DHT22;15976;47.938;7.758;2023-01-20T09:11:19;4.60;70.40
28845;DHT22;15976;47.938;7.758;2023-01-20T09:13:47;4.60;70.40
28845;DHT22;15976;47.938;7.758;2023-01-20T09:16:16;4.60;70.20
28845;DHT22;15976;47.938;7.758;2023-01-20T09:18:44;4.60;70.20
28845;DHT22;15976;47.938;7.758;2023-01-20T09:21:11;4.60;70.10
28845;DHT22;15976;47.938;7.758;2023-01-20T09:23:39;4.60;70.10
28845;DHT22;15976;47.938;7.758;2023-01-20T09:26:06;4.60;70.10
28845;DHT22;15976;47.938;7.758;2023-01-20T09:28:34;4.60;70.10
28845;DHT22;15976;47.938;7.758;2023-01-20T09:31:04;4.70;69.80
28845;DHT22;15976;47.938;7.758;2023-01-20T09:33:34;4.70;69.40
28845;DHT22;15976;47.938;7.758;2023-01-20T09:36:02;4.70;68.90
28845;DHT22;15976;47.938;7.758;2023-01-20T09:38:30;4.60;68.60
28845;DHT22;15976;47.938;7.758;2023-01-20T09:41:29;4.60;68.30
28845;DHT22;15976;47.938;7.758;2023-01-20T09:44:32;4.60;68.00
28845;DHT22;15976;47.938;7.758;2023-01-20T09:55:58;4.80;66.80
28845;DHT22;15976;47.938;7.758;2023-01-20T10:07:11;5.00;65.90
28845;DHT22;15976;47.938;7.758;2023-01-20T10:10:34;5.10;65.40
28845;DHT22;15976;47.938;7.758;2023-01-20T10:13:13;5.10;65.30
28845;DHT22;15976;47.938;7.758;2023-01-20T10:15:47;5.20;65.20
28845;DHT22;15976;47.938;7.758;2023-01-20T10:18:20;5.30;65.10
28845;DHT22;15976;47.938;7.758;2023-01-20T10:21:00;5.30;64.80
28845;DHT22;15976;47.938;7.758;2023-01-20T10:26:29;5.30;64.60
28845;DHT22;15976;47.938;7.758;2023-01-20T10:29:04;5.30;64.50
28845;DHT22;15976;47.938;7.758;2023-01-20T10:31:36;5.30;64.20
28845;DHT22;15976;47.938;7.758;2023-01-20T10:34:11;5.30;64.10
28845;DHT22;15976;47.938;7.758;2023-01-20T10:36:43;5.30;64.10
28845;DHT22;15976;47.938;7.758;2023-01-20T10:42:01;5.40;64.00
28845;DHT22;15976;47.938;7.758;2023-01-20T10:44:32;5.40;63.90
28845;DHT22;15976;47.938;7.758;2023-01-20T11:00:49;5.70;64.20
28845;DHT22;15976;47.938;7.758;2023-01-20T11:03:21;5.70;64.40
28845;DHT22;15976;47.938;7.758;2023-01-20T11:05:50;5.70;64.50
28845;DHT22;15976;47.938;7.758;2023-01-20T11:08:22;5.70;64.60
28845;DHT22;15976;47.938;7.758;2023-01-20T11:10:56;5.70;64.70
28845;DHT22;15976;47.938;7.758;2023-01-20T11:13:23;5.80;64.80
28845;DHT22;15976;47.938;7.758;2023-01-20T11:15:57;5.90;64.40
28845;DHT22;15976;47.938;7.758;2023-01-20T11:18:31;5.80;64.40
28845;DHT22;15976;47.938;7.758;2023-01-20T11:21:12;5.90;64.30
28845;DHT22;15976;47.938;7.758;2023-01-20T11:23:41;5.90;64.20
28845;DHT22;15976;47.938;7.758;2023-01-20T11:26:32;5.90;64.20
28845;DHT22;15976;47.938;7.758;2023-01-20T11:36:40;6.70;63.20
28845;DHT22;15976;47.938;7.758;2023-01-20T11:39:43;6.90;62.90
28845;DHT22;15976;47.938;7.758;2023-01-20T11:44:47;7.00;61.60
28845;DHT22;15976;47.938;7.758;2023-01-20T11:47:30;6.90;61.60
28845;DHT22;15976;47.938;7.758;2023-01-20T11:50:34;6.80;61.60
28845;DHT22;15976;47.938;7.758;2023-01-20T11:55:54;6.50;62.60
28845;DHT22;15976;47.938;7.758;2023-01-20T11:58:45;6.50;62.90
28845;DHT22;15976;47.938;7.758;2023-01-20T12:01:50;6.50;63.20
28845;DHT22;15976;47.938;7.758;2023-01-20T12:07:13;6.60;63.30
28845;DHT22;15976;47.938;7.758;2023-01-20T12:09:47;6.60;64.10
28845;DHT22;15976;47.938;7.758;2023-01-20T12:12:37;6.50;63.00
28845;DHT22;15976;47.938;7.758;2023-01-20T12:15:21;6.40;63.00
28845;DHT22;15976;47.938;7.758;2023-01-20T12:20:35;6.40;63.20
28845;DHT22;15976;47.938;7.758;2023-01-20T12:26:21;6.50;62.70
28845;DHT22;15976;47.938;7.758;2023-01-20T12:28:57;6.40;62.80
28845;DHT22;15976;47.938;7.758;2023-01-20T12:31:25;6.30;62.90
28845;DHT22;15976;47.938;7.758;2023-01-20T12:36:50;6.10;63.60
28845;DHT22;15976;47.938;7.758;2023-01-20T12:45:10;6.40;63.40
28845;DHT22;15976;47.938;7.758;2023-01-20T12:53:41;6.60;62.40
28845;DHT22;15976;47.938;7.758;2023-01-20T13:01:33;6.30;63.20
28845;DHT22;15976;47.938;7.758;2023-01-20T13:07:33;6.10;63.60
28845;DHT22;15976;47.938;7.758;2023-01-20T13:19:12;5.80;64.50
28845;DHT22;15976;47.938;7.758;2023-01-20T13:21:32;5.90;64.40
28845;DHT22;15976;47.938;7.758;2023-01-20T13:24:01;5.80;64.30
28845;DHT22;15976;47.938;7.758;2023-01-20T13:26:30;5.90;64.40
28845;DHT22;15976;47.938;7.758;2023-01-20T13:28:58;5.90;64.40
28845;DHT22;15976;47.938;7.758;2023-01-20T13:39:40;6.10;63.00
28845;DHT22;15976;47.938;7.758;2023-01-20T13:42:27;6.20;62.70
28845;DHT22;15976;47.938;7.758;2023-01-20T13:47:51;6.20;62.40
28845;DHT22;15976;47.938;7.758;2023-01-20T14:00:44;6.20;61.70
28845;DHT22;15976;47.938;7.758;2023-01-20T14:05:53;6.30;61.40
28845;DHT22;15976;47.938;7.758;2023-01-20T14:08:22;6.40;61.10
28845;DHT22;15976;47.938;7.758;2023-01-20T14:10:49;6.40;60.70
28845;DHT22;15976;47.938;7.758;2023-01-20T14:13:22;6.40;60.30
28845;DHT22;15976;47.938;7.758;2023-01-20T14:15:54;6.40;60.00
28845;DHT22;15976;47.938;7.758;2023-01-20T14:18:24;6.40;59.90
28845;DHT22;15976;47.938;7.758;2023-01-20T14:23:44;6.40;60.10
28845;DHT22;15976;47.938;7.758;2023-01-20T14:26:25;6.40;60.00
28845;DHT22;15976;47.938;7.758;2023-01-20T14:29:00;6.40;59.90
28845;DHT22;15976;47.938;7.758;2023-01-20T14:31:31;6.50;59.90
28845;DHT22;15976;47.938;7.758;2023-01-20T14:34:27;6.40;59.70
28845;DHT22;15976;47.938;7.758;2023-01-20T14:36:56;6.40;59.40
28845;DHT22;15976;47.938;7.758;2023-01-20T14:39:26;6.40;59.20
28845;DHT22;15976;47.938;7.758;2023-01-20T14:42:00;6.30;59.00
28845;DHT22;15976;47.938;7.758;2023-01-20T14:44:29;6.30;58.90
28845;DHT22;15976;47.938;7.758;2023-01-20T14:47:02;6.20;58.60
28845;DHT22;15976;47.938;7.758;2023-01-20T14:49:39;6.10;58.60
28845;DHT22;15976;47.938;7.758;2023-01-20T14:52:20;6.10;58.50
28845;DHT22;15976;47.938;7.758;2023-01-20T14:54:51;6.20;58.60
28845;DHT22;15976;47.938;7.758;2023-01-20T14:57:31;6.20;58.20
28845;DHT22;15976;47.938;7.758;2023-01-20T15:02:40;6.10;58.20
28845;DHT22;15976;47.938;7.758;2023-01-20T15:05:32;6.10;58.20
28845;DHT22;15976;47.938;7.758;2023-01-20T15:08:21;6.10;58.30
28845;DHT22;15976;47.938;7.758;2023-01-20T15:21:54;6.10;58.60
28845;DHT22;15976;47.938;7.758;2023-01-20T15:24:22;6.10;58.70
28845;DHT22;15976;47.938;7.758;2023-01-20T15:26:54;6.00;58.70
28845;DHT22;15976;47.938;7.758;2023-01-20T15:29:32;6.00;58.80
28845;DHT22;15976;47.938;7.758;2023-01-20T15:32:01;6.00;59.00
28845;DHT22;15976;47.938;7.758;2023-01-20T15:34:29;6.00;59.20
28845;DHT22;15976;47.938;7.758;2023-01-20T15:36:56;6.00;59.30
28845;DHT22;15976;47.938;7.758;2023-01-20T15:39:25;6.00;59.20
28845;DHT22;15976;47.938;7.758;2023-01-20T15:41:55;5.90;59.10
28845;DHT22;15976;47.938;7.758;2023-01-20T15:44:24;5.90;59.10
28845;DHT22;15976;47.938;7.758;2023-01-20T15:46:52;5.90;59.20
28845;DHT22;15976;47.938;7.758;2023-01-20T15:49:23;6.00;59.30
28845;DHT22;15976;47.938;7.758;2023-01-20T15:51:51;5.90;59.30
28845;DHT22;15976;47.938;7.758;2023-01-20T15:54:18;5.90;59.40
28845;DHT22;15976;47.938;7.758;2023-01-20T15:56:45;5.90;59.40
28845;DHT22;15976;47.938;7.758;2023-01-20T15:59:14;5.80;59.20
28845;DHT22;15976;47.938;7.758;2023-01-20T16:01:42;5.70;59.20
28845;DHT22;15976;47.938;7.758;2023-01-20T16:04:13;5.70;59.30
28845;DHT22;15976;47.938;7.758;2023-01-20T16:06:40;5.60;59.50
28845;DHT22;15976;47.938;7.758;2023-01-20T16:11:48;5.50;59.60
28845;DHT22;15976;47.938;7.758;2023-01-20T16:14:15;5.40;59.60
28845;DHT22;15976;47.938;7.758;2023-01-20T16:16:42;5.40;59.70
28845;DHT22;15976;47.938;7.758;2023-01-20T16:19:12;5.40;59.80
28845;DHT22;15976;47.938;7.758;2023-01-20T16:21:39;5.40;59.90
28845;DHT22;15976;47.938;7.758;2023-01-20T16:24:08;5.40;59.90
28845;DHT22;15976;47.938;7.758;2023-01-20T16:26:35;5.40;60.00
28845;DHT22;15976;47.938;7.758;2023-01-20T16:29:02;5.40;60.10
28845;DHT22;15976;47.938;7.758;2023-01-20T16:31:30;5.40;60.20
28845;DHT22;15976;47.938;7.758;2023-01-20T16:33:59;5.40;60.20
28845;DHT22;15976;47.938;7.758;2023-01-20T16:36:26;5.40;60.20
28845;DHT22;15976;47.938;7.758;2023-01-20T16:38:53;5.30;60.00
28845;DHT22;15976;47.938;7.758;2023-01-20T16:41:24;5.30;60.10
28845;DHT22;15976;47.938;7.758;2023-01-20T16:43:52;5.20;60.00
28845;DHT22;15976;47.938;7.758;2023-01-20T16:46:22;5.20;60.10
28845;DHT22;15976;47.938;7.758;2023-01-20T16:48:50;5.20;60.20
28845;DHT22;15976;47.938;7.758;2023-01-20T16:51:20;5.10;60.20
28845;DHT22;15976;47.938;7.758;2023-01-20T16:53:47;5.10;60.40
28845;DHT22;15976;47.938;7.758;2023-01-20T16:56:17;5.00;61.10
28845;DHT22;15976;47.938;7.758;2023-01-20T16:58:48;5.00;60.30
28845;DHT22;15976;47.938;7.758;2023-01-20T17:01:16;5.00;60.30
28845;DHT22;15976;47.938;7.758;2023-01-20T17:03:49;4.90;60.30
28845;DHT22;15976;47.938;7.758;2023-01-20T17:06:18;4.90;60.30
28845;DHT22;15976;47.938;7.758;2023-01-20T17:08:50;4.80;60.40
28845;DHT22;15976;47.938;7.758;2023-01-20T17:11:19;4.80;60.50
28845;DHT22;15976;47.938;7.758;2023-01-20T17:13:47;4.70;60.60
28845;DHT22;15976;47.938;7.758;2023-01-20T17:16:14;4.70;60.60
28845;DHT22;15976;47.938;7.758;2023-01-20T17:18:41;4.70;60.70
28845;DHT22;15976;47.938;7.758;2023-01-20T17:21:12;4.70;60.80
28845;DHT22;15976;47.938;7.758;2023-01-20T17:23:40;4.80;60.80
28845;DHT22;15976;47.938;7.758;2023-01-20T17:26:08;4.70;60.80
28845;DHT22;15976;47.938;7.758;2023-01-20T17:28:35;4.70;60.80
28845;DHT22;15976;47.938;7.758;2023-01-20T17:31:03;4.60;60.80
28845;DHT22;15976;47.938;7.758;2023-01-20T17:33:32;4.60;60.60
28845;DHT22;15976;47.938;7.758;2023-01-20T17:36:01;4.60;60.70
28845;DHT22;15976;47.938;7.758;2023-01-20T17:38:30;4.50;60.80
28845;DHT22;15976;47.938;7.758;2023-01-20T17:41:04;4.50;61.00
28845;DHT22;15976;47.938;7.758;2023-01-20T17:43:49;4.40;61.10
28845;DHT22;15976;47.938;7.758;2023-01-20T17:46:19;4.40;61.30
28845;DHT22;15976;47.938;7.758;2023-01-20T17:48:47;4.30;61.50
28845;DHT22;15976;47.938;7.758;2023-01-20T17:51:17;4.30;61.90
28845;DHT22;15976;47.938;7.758;2023-01-20T17:53:45;4.20;62.30
28845;DHT22;15976;47.938;7.758;2023-01-20T17:56:13;4.10;62.40
28845;DHT22;15976;47.938;7.758;2023-01-20T17:58:42;4.00;62.50
28845;DHT22;15976;47.938;7.758;2023-01-20T18:01:16;4.00;62.60
28845;DHT22;15976;47.938;7.758;2023-01-20T18:03:45;3.90;62.80
28845;DHT22;15976;47.938;7.758;2023-01-20T18:06:14;3.90;62.90
28845;DHT22;15976;47.938;7.758;2023-01-20T18:08:42;3.80;63.10
28845;DHT22;15976;47.938;7.758;2023-01-20T18:11:14;3.80;63.20
28845;DHT22;15976;47.938;7.758;2023-01-20T18:13:43;3.80;63.10
28845;DHT22;15976;47.938;7.758;2023-01-20T18:16:12;3.70;62.80
28845;DHT22;15976;47.938;7.758;2023-01-20T18:18:41;3.70;63.10
28845;DHT22;15976;47.938;7.758;2023-01-20T18:23:39;3.70;63.50
28845;DHT22;15976;47.938;7.758;2023-01-20T18:26:08;3.60;63.70
28845;DHT22;15976;47.938;7.758;2023-01-20T18:28:35;3.50;63.90
28845;DHT22;15976;47.938;7.758;2023-01-20T18:31:24;3.50;63.90
28845;DHT22;15976;47.938;7.758;2023-01-20T18:33:54;3.50;63.50
28845;DHT22;15976;47.938;7.758;2023-01-20T18:36:24;3.50;63.20
28845;DHT22;15976;47.938;7.758;2023-01-20T18:38:53;3.50;63.20
28845;DHT22;15976;47.938;7.758;2023-01-20T18:41:21;3.40;63.40
28845;DHT22;15976;47.938;7.758;2023-01-20T18:43:49;3.40;63.70
28845;DHT22;15976;47.938;7.758;2023-01-20T18:46:16;3.40;63.80
28845;DHT22;15976;47.938;7.758;2023-01-20T18:48:45;3.30;64.00
28845;DHT22;15976;47.938;7.758;2023-01-20T18:51:14;3.30;64.20
28845;DHT22;15976;47.938;7.758;2023-01-20T18:53:44;3.30;64.00
28845;DHT22;15976;47.938;7.758;2023-01-20T18:56:13;3.20;64.00
28845;DHT22;15976;47.938;7.758;2023-01-20T18:58:41;3.20;64.30
28845;DHT22;15976;47.938;7.758;2023-01-20T19:01:20;3.10;64.30